Weather History for Thief River Falls, MN

Change the Weather History Date:

Sunday, March 31, 2013

  Actual Average Record
Temperature  
Mean Temperature 22 °F -  
Max Temperature 32 °F 38 °F 62 °F (2012)
Min Temperature 12 °F 24 °F 4 °F (1979)
Degree Days  
Heating Degree Days 43    
Moisture  
Dew Point 15 °F    
Average Humidity 73    
Maximum Humidity 93    
Minimum Humidity 59    
Precipitation  
Precipitation 0.00 in - - ()
Sea Level Pressure  
Sea Level Pressure 29.99 in    
Wind  
Wind Speed 15 mph (NW)    
Max Wind Speed 23 mph    
Max Gust Speed 29 mph    
Visibility 10 miles    
Events      
Averages and records for this station are not official NWS values.
T = Trace of Precipitation, MM = Missing Value Source: NWS Daily Summary

Daily Weather History Graph

Daily Weather History Graph

Search for Another Location

Airport:

Trip Planner

Search our weather history database for the weather conditions in past years. The results will help you decide how hot, cold, wet, or windy it might be!

Date:

Astronomy

Mar. 31, 2013 Rise Set
Actual Time 7:04 AM CDT 7:53 PM CDT
Civil Twilight 6:33 AM CDT 8:25 PM CDT
Nautical Twilight 5:55 AM CDT 9:03 PM CDT
Astronomical Twilight 5:16 AM CDT 9:42 PM CDT
Moon 12:19 AM CDT (3/31) 9:33 AM CDT (3/31)
Length of Visible Light 13h 52m
Length of Day
12h 49m
Waning Gibbous, 77% of the Moon is Illuminated
Mar 31
Waning Gibbous
Apr 2
Last Quarter
Apr 10
New
Apr 18
First Quarter
Apr 25
Full

Hourly Weather History & Observations

Time (CDT) Temp. Windchill Dew Point Humidity Pressure Visibility Wind Dir Wind Speed Gust Speed Precip Events Conditions
12:15 AM 32.0 °F 24.8 °F 24.8 °F 75% 29.84 in 10.0 mi West 8.1 mph - N/A   Overcast
12:35 AM 30.2 °F 24.3 °F 26.6 °F 86% 29.83 in 10.0 mi West 5.8 mph - N/A   Overcast
12:55 AM 30.2 °F 23.4 °F 26.6 °F 86% 29.83 in 10.0 mi West 6.9 mph - N/A   Overcast
1:15 AM 30.2 °F 23.4 °F 26.6 °F 86% 29.82 in 10.0 mi West 6.9 mph - N/A   Overcast
1:35 AM 30.2 °F 21.9 °F 26.6 °F 86% 29.82 in 10.0 mi West 9.2 mph - N/A   Overcast
1:55 AM 30.2 °F 21.3 °F 26.6 °F 86% 29.81 in 10.0 mi West 10.4 mph - N/A   Overcast
2:15 AM 30.2 °F 21.3 °F 28.4 °F 93% 29.81 in 9.0 mi West 10.4 mph - N/A   Overcast
2:35 AM 30.2 °F 19.8 °F 28.4 °F 93% 29.81 in 8.0 mi WNW 13.8 mph - N/A   Overcast
2:55 AM 30.2 °F 19.8 °F 26.6 °F 86% 29.81 in 8.0 mi WNW 13.8 mph 19.6 mph N/A   Overcast
3:15 AM 30.2 °F 18.9 °F 26.6 °F 86% 29.81 in 8.0 mi NW 16.1 mph - N/A   Overcast
3:35 AM 30.2 °F 18.9 °F 26.6 °F 86% 29.82 in 9.0 mi NW 16.1 mph - N/A   Overcast
3:55 AM 30.2 °F 17.8 °F 26.6 °F 86% 29.83 in 4.0 mi North 19.6 mph - N/A   Overcast
4:15 AM 28.4 °F 16.6 °F 21.2 °F 74% 29.84 in 9.0 mi NNW 16.1 mph - N/A   Overcast
4:35 AM 28.4 °F 15.8 °F 21.2 °F 74% 29.85 in 10.0 mi North 18.4 mph 28.8 mph N/A   Overcast
4:55 AM 26.6 °F 14.3 °F 21.2 °F 80% 29.85 in 10.0 mi NNW 16.1 mph - N/A   Partly Cloudy
5:15 AM 26.6 °F 13.8 °F 19.4 °F 74% 29.86 in 10.0 mi NNW 17.3 mph - N/A   Clear
5:35 AM 24.8 °F 11.1 °F 17.6 °F 74% 29.87 in 10.0 mi NNW 18.4 mph - N/A   Clear
5:55 AM 24.8 °F 11.9 °F 19.4 °F 80% 29.88 in 10.0 mi NNW 16.1 mph - N/A   Clear
6:15 AM 24.8 °F 11.9 °F 17.6 °F 74% 29.89 in 10.0 mi NNW 16.1 mph - N/A   Partly Cloudy
6:35 AM 23.0 °F 9.2 °F 15.8 °F 74% 29.90 in 10.0 mi NNW 17.3 mph - N/A   Clear
6:55 AM 21.2 °F 7.3 °F 15.8 °F 80% 29.91 in 10.0 mi NNW 16.1 mph - N/A   Clear
7:15 AM 21.2 °F 6.0 °F 15.8 °F 80% 29.92 in 10.0 mi NW 19.6 mph - N/A   Clear
7:35 AM 21.2 °F 6.8 °F 14.0 °F 74% 29.93 in 10.0 mi NNW 17.3 mph - N/A   Clear
7:55 AM 21.2 °F 7.3 °F 14.0 °F 74% 29.94 in 10.0 mi NNW 16.1 mph - N/A   Clear
8:15 AM 21.2 °F 6.4 °F 14.0 °F 74% 29.95 in 10.0 mi NW 18.4 mph 23.0 mph N/A   Clear
8:35 AM 21.2 °F 6.4 °F 14.0 °F 74% 29.96 in 10.0 mi NNW 18.4 mph - N/A   Clear
8:55 AM 19.4 °F 5.0 °F 12.2 °F 74% 29.97 in 10.0 mi NW 16.1 mph - N/A   Clear
9:15 AM 19.4 °F 3.6 °F 12.2 °F 74% 29.97 in 10.0 mi NW 19.6 mph 24.2 mph N/A   Clear
9:35 AM 21.2 °F 5.6 °F 14.0 °F 74% 29.98 in 10.0 mi NW 20.7 mph - N/A   Clear
9:55 AM 21.2 °F 6.4 °F 14.0 °F 74% 29.98 in 10.0 mi NW 18.4 mph 21.9 mph N/A   Clear
10:15 AM 21.2 °F 6.0 °F 12.2 °F 68% 29.99 in 10.0 mi NNW 19.6 mph - N/A   Clear
10:35 AM 21.2 °F 6.0 °F 14.0 °F 74% 29.99 in 10.0 mi NNW 19.6 mph - N/A   Clear
10:55 AM 21.2 °F 6.8 °F 14.0 °F 74% 30.00 in 10.0 mi NNW 17.3 mph - N/A   Partly Cloudy
11:15 AM 21.2 °F 6.0 °F 14.0 °F 74% 30.00 in 10.0 mi NNW 19.6 mph - N/A   Partly Cloudy
11:35 AM 21.2 °F 5.6 °F 12.2 °F 68% 30.01 in 10.0 mi NNW 20.7 mph 26.5 mph N/A   Partly Cloudy
11:55 AM 23.0 °F 8.0 °F 12.2 °F 63% 30.01 in 10.0 mi NNW 20.7 mph - N/A   Clear
12:15 PM 23.0 °F 8.0 °F 10.4 °F 59% 30.01 in 10.0 mi NW 20.7 mph 26.5 mph N/A   Clear
12:35 PM 23.0 °F 7.6 °F 10.4 °F 59% 30.02 in 10.0 mi NNW 21.9 mph - N/A   Partly Cloudy
12:55 PM 23.0 °F 8.7 °F 12.2 °F 63% 30.02 in 10.0 mi NW 18.4 mph 23.0 mph N/A   Scattered Clouds
1:15 PM 23.0 °F 7.6 °F 10.4 °F 59% 30.03 in 10.0 mi NNW 21.9 mph - N/A   Overcast
1:35 PM 23.0 °F 8.0 °F 10.4 °F 59% 30.04 in 10.0 mi NNW 20.7 mph - N/A   Mostly Cloudy
1:55 PM 21.2 °F 6.0 °F 10.4 °F 63% 30.04 in 10.0 mi NNW 19.6 mph - N/A   Mostly Cloudy
2:15 PM 23.0 °F 8.3 °F 12.2 °F 63% 30.04 in 10.0 mi NW 19.6 mph 24.2 mph N/A   Overcast
2:35 PM 23.0 °F 7.2 °F 10.4 °F 59% 30.05 in 10.0 mi NW 23.0 mph 26.5 mph N/A   Mostly Cloudy
2:55 PM 23.0 °F 7.6 °F 10.4 °F 59% 30.05 in 10.0 mi NW 21.9 mph - N/A   Mostly Cloudy
3:15 PM 21.2 °F 4.9 °F 12.2 °F 68% 30.05 in 10.0 mi NW 23.0 mph 26.5 mph N/A   Scattered Clouds
3:35 PM 21.2 °F 5.6 °F 12.2 °F 68% 30.05 in 10.0 mi NW 20.7 mph - N/A   Scattered Clouds
3:55 PM 21.2 °F 5.2 °F 10.4 °F 63% 30.06 in 10.0 mi NW 21.9 mph - N/A   Clear
4:15 PM 21.2 °F 5.2 °F 12.2 °F 68% 30.06 in 10.0 mi NW 21.9 mph - N/A   Partly Cloudy
4:35 PM 21.2 °F 5.2 °F 10.4 °F 63% 30.07 in 10.0 mi WNW 21.9 mph 26.5 mph N/A   Partly Cloudy
4:55 PM 21.2 °F 6.0 °F 12.2 °F 68% 30.08 in 10.0 mi NW 19.6 mph - N/A   Scattered Clouds
5:15 PM 21.2 °F 6.4 °F 12.2 °F 68% 30.08 in 10.0 mi WNW 18.4 mph - N/A   Mostly Cloudy
5:35 PM 21.2 °F 5.6 °F 12.2 °F 68% 30.09 in 10.0 mi NW 20.7 mph 25.3 mph N/A   Overcast
5:55 PM 21.2 °F 6.4 °F 12.2 °F 68% 30.09 in 10.0 mi WNW 18.4 mph - N/A   Overcast
6:15 PM 19.4 °F 4.5 °F 12.2 °F 74% 30.10 in 10.0 mi NW 17.3 mph - N/A   Overcast
6:35 PM 19.4 °F 2.8 °F 10.4 °F 68% 30.10 in 10.0 mi NW 21.9 mph - N/A   Overcast
6:55 PM 19.4 °F 2.8 °F 12.2 °F 74% 30.11 in 10.0 mi NW 21.9 mph - N/A   Overcast
7:15 PM 19.4 °F 5.0 °F 10.4 °F 68% 30.12 in 10.0 mi NW 16.1 mph - N/A   Scattered Clouds
7:35 PM 19.4 °F 4.1 °F 10.4 °F 68% 30.12 in 10.0 mi NW 18.4 mph - N/A   Mostly Cloudy
7:55 PM 17.6 °F 2.7 °F 10.4 °F 73% 30.13 in 10.0 mi NW 16.1 mph - N/A   Overcast
8:15 PM 17.6 °F 3.7 °F 10.4 °F 73% 30.13 in 10.0 mi NW 13.8 mph - N/A   Mostly Cloudy
8:35 PM 17.6 °F 4.3 °F 10.4 °F 73% 30.14 in 10.0 mi WNW 12.7 mph - N/A   Clear
8:55 PM 15.8 °F 2.7 °F 8.6 °F 73% 30.14 in 10.0 mi WNW 11.5 mph - N/A   Clear
9:15 PM 15.8 °F 2.1 °F 8.6 °F 73% 30.15 in 10.0 mi WNW 12.7 mph - N/A   Clear
9:35 PM 15.8 °F 2.7 °F 8.6 °F 73% 30.16 in 10.0 mi WNW 11.5 mph - N/A   Clear
10:15 PM 15.8 °F 4.2 °F 8.6 °F 73% 30.17 in 10.0 mi WNW 9.2 mph - N/A   Clear
10:35 PM 14.0 °F 2.0 °F 8.6 °F 79% 30.17 in 10.0 mi WNW 9.2 mph - N/A   Clear
11:15 PM 12.2 °F 0.7 °F 6.8 °F 79% 30.17 in 10.0 mi WNW 8.1 mph - N/A   Clear
11:35 PM 12.2 °F -1.0 °F 6.8 °F 79% 30.17 in 10.0 mi NW 10.4 mph - N/A   Clear
11:55 PM 12.2 °F -0.2 °F 6.8 °F 79% 30.17 in 10.0 mi WNW 9.2 mph - N/A   Clear